Tinker Air Force Base Oklahoma City US
ICAO: KTIK
IATA: TIK
Category: Large
Scheduled Services: No

Elevation: 1291 ft
TransAlt. 18000 ft.

Airport Communications:
OKE CITY APP/DEP:26.68
OKE CITY APP/DEP:120.45
ATIS:27.01
CLNC DEL:119.7
GND:121.8
ATOC:119.15
AFMC FLT TEST:38.26
PMSV METRO:26.102
507 ARW:22.845
ACC COMD POST:141.65
PTD:134.1
SFA:35.412
TWR:124.45

KTIK Zoom In..

Runways:

(A) RW 13 length 10000 ft width 200 ft
LOC 111.70 / hdg 126

(B) RW 18 length 11101 ft width 200 ft
ILS 111.30 / hdg 175

(C) RW 31 length 10000 ft width 200 ft
LOC 111.70 / hdg 306

(D) RW 36 length 11101 ft width 200 ft
ILS 109.50 / hdg 355

Location; KTIK
Day. 22 / Time. 03.56 Zulu
* Altimeter: 29.68
* Temperature: 13° c. 55.4°f.
* Wind from: KTI° Speed K kn.
Dewpoint: -10° c.
Visibility: 10 Statute Miles.
Clouds: Scattered 11000 ft.

KTIK 220356Z AUTO 24018G24KT 10SM SCT110 13/M10 A2968 RMK AO2 SLP053 T01341105


Wind From KTI°
Speed K kn.

jpsM music video
CHECK IT OUT

jpsM - It Moves..

 
jpsmedia.com for Web Design  worldairports.se 2018   terms of use